createdAt,value
2022-09-17T00:11:38.617Z,10.7
2022-09-17T00:27:21.160Z,10.72
2022-09-17T00:43:03.624Z,10.83
2022-09-17T00:58:46.643Z,10.86
2022-09-17T01:14:29.003Z,10.89
2022-09-17T01:30:11.147Z,10.91
2022-09-17T01:45:54.035Z,10.95
2022-09-17T02:01:36.487Z,10.99
2022-09-17T02:17:18.582Z,11.06
2022-09-17T02:33:01.426Z,11.07
2022-09-17T02:48:44.272Z,11.09
2022-09-17T03:04:27.034Z,11.08
2022-09-17T03:20:10.047Z,11.12
2022-09-17T03:35:52.938Z,11.17
2022-09-17T03:51:35.455Z,11.21
2022-09-17T04:07:17.834Z,11.25
2022-09-17T04:23:00.446Z,11.31
2022-09-17T04:38:42.893Z,11.33
2022-09-17T04:54:25.468Z,11.38
2022-09-17T05:10:07.632Z,11.43
2022-09-17T05:25:50.278Z,11.47
2022-09-17T05:41:33.055Z,11.59
2022-09-17T05:57:15.564Z,11.74
2022-09-17T06:12:58.099Z,11.92
2022-09-17T06:28:41.160Z,11.86
2022-09-17T06:44:24.046Z,11.93
2022-09-17T07:00:06.801Z,12.27
2022-09-17T07:15:49.275Z,12.41
2022-09-17T07:31:32.205Z,12.29
2022-09-17T07:47:14.668Z,12.43
2022-09-17T08:02:56.922Z,13.02
2022-09-17T08:18:39.295Z,13.35
2022-09-17T08:34:21.956Z,13.69
2022-09-17T08:50:04.445Z,14.38
2022-09-17T09:05:46.459Z,14.89
2022-09-17T09:21:28.640Z,15.25
2022-09-17T09:37:11.452Z,15.4
2022-09-17T09:37:58.717Z,15.71
2022-09-17T09:53:41.852Z,16.44
2022-09-17T10:09:24.336Z,15.21
2022-09-17T10:25:06.965Z,13.46
2022-09-17T10:40:49.690Z,16.01
2022-09-17T10:56:32.448Z,15.35
2022-09-17T11:12:14.891Z,14.06
2022-09-17T11:27:57.111Z,14.16
2022-09-17T11:43:40.089Z,16
2022-09-17T11:59:22.660Z,15.8
2022-09-17T12:15:04.748Z,17.04
2022-09-17T12:30:47.217Z,16.17
2022-09-17T12:46:29.745Z,15.76
2022-09-17T13:02:11.817Z,18.04
2022-09-17T13:17:54.876Z,20
2022-09-17T13:33:37.066Z,17.18
2022-09-17T13:49:19.273Z,19
2022-09-17T14:05:01.884Z,19.45
2022-09-17T14:20:44.802Z,20.41
2022-09-17T14:36:27.204Z,21.86
2022-09-17T14:52:09.429Z,20.76
2022-09-17T15:07:52.406Z,18.31
2022-09-17T15:23:35.214Z,17.78
2022-09-17T15:39:17.636Z,15.97
2022-09-17T15:54:59.943Z,14.72
2022-09-17T16:10:42.783Z,13.87
2022-09-17T16:26:25.606Z,13.12
2022-09-17T16:42:08.115Z,12.68
2022-09-17T16:57:50.387Z,12.34
2022-09-17T17:13:33.412Z,12.09
2022-09-17T17:29:15.873Z,11.93
2022-09-17T17:44:58.162Z,11.6
2022-09-17T18:00:40.401Z,11.46
2022-09-17T18:16:22.522Z,11.34
2022-09-17T18:32:04.905Z,11.02
2022-09-17T18:47:47.885Z,10.86
2022-09-17T19:03:30.344Z,10.69
2022-09-17T19:19:13.319Z,10.28
2022-09-17T19:34:55.770Z,10.04
2022-09-17T19:50:37.944Z,9.84
2022-09-17T20:06:20.412Z,9.71
2022-09-17T20:22:03.166Z,9.71
2022-09-17T20:37:45.773Z,9.75
2022-09-17T20:53:28.729Z,9.83
2022-09-17T21:09:10.894Z,9.91
2022-09-17T21:24:53.038Z,10
2022-09-17T21:40:35.876Z,10.14
2022-09-17T21:56:18.302Z,10.3
2022-09-17T22:12:01.293Z,10.37
2022-09-17T22:27:43.749Z,10.43
2022-09-17T22:43:26.811Z,10.53
2022-09-17T22:59:09.363Z,10.53
2022-09-17T23:14:52.179Z,10.55
2022-09-17T23:30:34.997Z,10.59
2022-09-17T23:46:17.080Z,10.67
